sensor_id;sensor_type;location;lat;lon;timestamp;P1;durP1;ratioP1;P2;durP2;ratioP2
73869;SDS011;64924;42.140;24.762;2023-07-20T00:01:02;13.75;;;7.18;;
73869;SDS011;64924;42.140;24.762;2023-07-20T00:03:27;10.23;;;6.60;;
73869;SDS011;64924;42.140;24.762;2023-07-20T00:05:53;10.73;;;6.97;;
73869;SDS011;64924;42.140;24.762;2023-07-20T00:08:18;11.10;;;6.85;;
73869;SDS011;64924;42.140;24.762;2023-07-20T00:10:44;12.95;;;7.18;;
73869;SDS011;64924;42.140;24.762;2023-07-20T00:13:12;17.42;;;6.88;;
73869;SDS011;64924;42.140;24.762;2023-07-20T00:15:38;16.40;;;7.17;;
73869;SDS011;64924;42.140;24.762;2023-07-20T00:18:04;12.45;;;6.47;;
73869;SDS011;64924;42.140;24.762;2023-07-20T00:20:30;11.68;;;7.50;;
73869;SDS011;64924;42.140;24.762;2023-07-20T00:22:56;15.00;;;6.97;;
73869;SDS011;64924;42.140;24.762;2023-07-20T00:25:23;10.15;;;6.82;;
73869;SDS011;64924;42.140;24.762;2023-07-20T00:27:49;8.75;;;6.13;;
73869;SDS011;64924;42.140;24.762;2023-07-20T00:30:14;11.70;;;6.57;;
73869;SDS011;64924;42.140;24.762;2023-07-20T00:32:41;10.80;;;6.72;;
73869;SDS011;64924;42.140;24.762;2023-07-20T00:35:07;9.95;;;6.50;;
73869;SDS011;64924;42.140;24.762;2023-07-20T00:37:33;14.43;;;6.70;;
73869;SDS011;64924;42.140;24.762;2023-07-20T00:39:58;10.82;;;6.50;;
73869;SDS011;64924;42.140;24.762;2023-07-20T00:42:24;11.57;;;5.93;;
73869;SDS011;64924;42.140;24.762;2023-07-20T00:44:49;11.75;;;6.78;;
73869;SDS011;64924;42.140;24.762;2023-07-20T00:47:15;13.25;;;6.45;;
73869;SDS011;64924;42.140;24.762;2023-07-20T00:49:40;7.80;;;6.10;;
73869;SDS011;64924;42.140;24.762;2023-07-20T00:52:06;10.15;;;6.68;;
73869;SDS011;64924;42.140;24.762;2023-07-20T00:54:33;12.90;;;5.95;;
73869;SDS011;64924;42.140;24.762;2023-07-20T00:57:00;8.57;;;5.97;;
73869;SDS011;64924;42.140;24.762;2023-07-20T00:59:26;12.82;;;6.28;;
73869;SDS011;64924;42.140;24.762;2023-07-20T01:01:52;10.27;;;5.88;;
73869;SDS011;64924;42.140;24.762;2023-07-20T01:04:18;10.88;;;5.90;;
73869;SDS011;64924;42.140;24.762;2023-07-20T01:09:19;13.82;;;6.60;;
73869;SDS011;64924;42.140;24.762;2023-07-20T01:11:54;10.57;;;6.18;;
73869;SDS011;64924;42.140;24.762;2023-07-20T01:14:21;12.05;;;6.10;;
73869;SDS011;64924;42.140;24.762;2023-07-20T01:16:49;11.05;;;6.22;;
73869;SDS011;64924;42.140;24.762;2023-07-20T01:19:17;13.75;;;6.30;;
73869;SDS011;64924;42.140;24.762;2023-07-20T01:24:30;17.50;;;7.78;;
73869;SDS011;64924;42.140;24.762;2023-07-20T01:27:22;22.45;;;7.88;;
73869;SDS011;64924;42.140;24.762;2023-07-20T01:30:08;17.20;;;7.57;;
73869;SDS011;64924;42.140;24.762;2023-07-20T01:32:40;23.10;;;7.32;;
73869;SDS011;64924;42.140;24.762;2023-07-20T01:35:10;20.83;;;7.50;;
73869;SDS011;64924;42.140;24.762;2023-07-20T01:37:44;16.08;;;6.90;;
73869;SDS011;64924;42.140;24.762;2023-07-20T01:40:13;12.38;;;6.32;;
73869;SDS011;64924;42.140;24.762;2023-07-20T01:42:43;13.02;;;6.28;;
73869;SDS011;64924;42.140;24.762;2023-07-20T01:45:10;11.55;;;6.55;;
73869;SDS011;64924;42.140;24.762;2023-07-20T01:47:35;15.57;;;7.03;;
73869;SDS011;64924;42.140;24.762;2023-07-20T01:50:01;14.70;;;7.20;;
73869;SDS011;64924;42.140;24.762;2023-07-20T01:52:26;13.38;;;6.88;;
73869;SDS011;64924;42.140;24.762;2023-07-20T01:54:52;15.48;;;7.20;;
73869;SDS011;64924;42.140;24.762;2023-07-20T01:57:17;11.68;;;6.85;;
73869;SDS011;64924;42.140;24.762;2023-07-20T01:59:43;16.55;;;7.43;;
73869;SDS011;64924;42.140;24.762;2023-07-20T02:02:08;12.27;;;6.70;;
73869;SDS011;64924;42.140;24.762;2023-07-20T02:04:34;14.27;;;7.53;;
73869;SDS011;64924;42.140;24.762;2023-07-20T02:06:59;13.55;;;6.50;;
73869;SDS011;64924;42.140;24.762;2023-07-20T02:09:25;11.15;;;6.78;;
73869;SDS011;64924;42.140;24.762;2023-07-20T02:11:50;15.52;;;8.20;;
73869;SDS011;64924;42.140;24.762;2023-07-20T02:14:16;22.55;;;7.35;;
73869;SDS011;64924;42.140;24.762;2023-07-20T02:16:41;14.50;;;8.35;;
73869;SDS011;64924;42.140;24.762;2023-07-20T02:19:07;14.20;;;7.70;;
73869;SDS011;64924;42.140;24.762;2023-07-20T02:21:32;16.30;;;7.40;;
73869;SDS011;64924;42.140;24.762;2023-07-20T02:23:58;11.10;;;6.38;;
73869;SDS011;64924;42.140;24.762;2023-07-20T02:26:24;15.00;;;6.57;;
73869;SDS011;64924;42.140;24.762;2023-07-20T02:28:49;12.73;;;7.13;;
73869;SDS011;64924;42.140;24.762;2023-07-20T02:31:15;14.52;;;7.13;;
73869;SDS011;64924;42.140;24.762;2023-07-20T02:33:41;16.25;;;7.13;;
73869;SDS011;64924;42.140;24.762;2023-07-20T02:36:06;16.20;;;7.68;;
73869;SDS011;64924;42.140;24.762;2023-07-20T02:38:32;17.90;;;7.13;;
73869;SDS011;64924;42.140;24.762;2023-07-20T02:40:57;15.27;;;7.20;;
73869;SDS011;64924;42.140;24.762;2023-07-20T02:43:22;11.05;;;6.53;;
73869;SDS011;64924;42.140;24.762;2023-07-20T02:45:49;14.80;;;6.47;;
73869;SDS011;64924;42.140;24.762;2023-07-20T02:48:15;22.20;;;8.15;;
73869;SDS011;64924;42.140;24.762;2023-07-20T02:50:41;13.57;;;7.72;;
73869;SDS011;64924;42.140;24.762;2023-07-20T02:53:06;12.40;;;7.38;;
73869;SDS011;64924;42.140;24.762;2023-07-20T02:55:32;17.88;;;8.13;;
73869;SDS011;64924;42.140;24.762;2023-07-20T02:57:57;21.15;;;8.30;;
73869;SDS011;64924;42.140;24.762;2023-07-20T03:00:22;12.75;;;7.97;;
73869;SDS011;64924;42.140;24.762;2023-07-20T03:02:48;16.17;;;8.93;;
73869;SDS011;64924;42.140;24.762;2023-07-20T03:05:14;16.42;;;9.07;;
73869;SDS011;64924;42.140;24.762;2023-07-20T03:07:41;15.35;;;8.75;;
73869;SDS011;64924;42.140;24.762;2023-07-20T03:10:08;20.75;;;9.05;;
73869;SDS011;64924;42.140;24.762;2023-07-20T03:12:34;16.45;;;8.45;;
73869;SDS011;64924;42.140;24.762;2023-07-20T03:15:03;22.92;;;8.85;;
73869;SDS011;64924;42.140;24.762;2023-07-20T03:17:29;20.17;;;8.90;;
73869;SDS011;64924;42.140;24.762;2023-07-20T03:19:54;15.23;;;9.20;;
73869;SDS011;64924;42.140;24.762;2023-07-20T03:22:20;18.63;;;9.43;;
73869;SDS011;64924;42.140;24.762;2023-07-20T03:24:47;20.60;;;9.23;;
73869;SDS011;64924;42.140;24.762;2023-07-20T03:27:12;16.98;;;9.95;;
73869;SDS011;64924;42.140;24.762;2023-07-20T03:29:38;17.77;;;9.63;;
73869;SDS011;64924;42.140;24.762;2023-07-20T03:32:04;22.05;;;9.93;;
73869;SDS011;64924;42.140;24.762;2023-07-20T03:34:30;21.77;;;9.80;;
73869;SDS011;64924;42.140;24.762;2023-07-20T03:36:55;18.17;;;9.48;;
73869;SDS011;64924;42.140;24.762;2023-07-20T03:39:22;18.77;;;10.50;;
73869;SDS011;64924;42.140;24.762;2023-07-20T03:41:47;19.13;;;9.70;;
73869;SDS011;64924;42.140;24.762;2023-07-20T03:44:13;19.50;;;10.13;;
73869;SDS011;64924;42.140;24.762;2023-07-20T03:46:38;15.38;;;9.57;;
73869;SDS011;64924;42.140;24.762;2023-07-20T03:49:04;17.98;;;9.10;;
73869;SDS011;64924;42.140;24.762;2023-07-20T03:51:31;25.73;;;10.60;;
73869;SDS011;64924;42.140;24.762;2023-07-20T03:53:57;25.13;;;9.70;;
73869;SDS011;64924;42.140;24.762;2023-07-20T03:56:22;14.25;;;8.95;;
73869;SDS011;64924;42.140;24.762;2023-07-20T03:58:49;23.08;;;9.90;;
73869;SDS011;64924;42.140;24.762;2023-07-20T04:01:14;20.40;;;9.32;;
73869;SDS011;64924;42.140;24.762;2023-07-20T04:03:41;21.95;;;9.75;;
73869;SDS011;64924;42.140;24.762;2023-07-20T04:06:08;19.45;;;9.30;;
73869;SDS011;64924;42.140;24.762;2023-07-20T04:08:33;25.13;;;8.82;;
73869;SDS011;64924;42.140;24.762;2023-07-20T04:11:01;23.40;;;8.55;;
73869;SDS011;64924;42.140;24.762;2023-07-20T04:13:27;28.08;;;9.43;;
73869;SDS011;64924;42.140;24.762;2023-07-20T04:15:53;32.45;;;9.35;;
73869;SDS011;64924;42.140;24.762;2023-07-20T04:18:18;22.85;;;9.80;;
73869;SDS011;64924;42.140;24.762;2023-07-20T04:20:44;17.48;;;8.80;;
73869;SDS011;64924;42.140;24.762;2023-07-20T04:23:10;19.80;;;8.98;;
73869;SDS011;64924;42.140;24.762;2023-07-20T04:25:36;29.83;;;8.20;;
73869;SDS011;64924;42.140;24.762;2023-07-20T04:28:06;24.60;;;8.68;;
73869;SDS011;64924;42.140;24.762;2023-07-20T04:30:36;19.95;;;8.80;;
73869;SDS011;64924;42.140;24.762;2023-07-20T04:33:02;43.42;;;12.13;;
73869;SDS011;64924;42.140;24.762;2023-07-20T04:38:14;46.15;;;14.38;;
73869;SDS011;64924;42.140;24.762;2023-07-20T04:40:47;25.48;;;11.82;;
73869;SDS011;64924;42.140;24.762;2023-07-20T04:43:14;24.48;;;10.10;;
73869;SDS011;64924;42.140;24.762;2023-07-20T04:45:40;28.70;;;10.48;;
73869;SDS011;64924;42.140;24.762;2023-07-20T04:48:09;20.05;;;9.60;;
73869;SDS011;64924;42.140;24.762;2023-07-20T04:50:42;22.75;;;8.98;;
73869;SDS011;64924;42.140;24.762;2023-07-20T04:53:09;20.90;;;8.65;;
73869;SDS011;64924;42.140;24.762;2023-07-20T04:55:38;20.07;;;8.87;;
73869;SDS011;64924;42.140;24.762;2023-07-20T04:58:04;16.88;;;8.75;;
73869;SDS011;64924;42.140;24.762;2023-07-20T05:00:31;15.70;;;8.02;;
73869;SDS011;64924;42.140;24.762;2023-07-20T05:02:57;23.08;;;8.30;;
73869;SDS011;64924;42.140;24.762;2023-07-20T05:05:23;19.05;;;7.97;;
73869;SDS011;64924;42.140;24.762;2023-07-20T05:07:48;12.98;;;8.10;;
73869;SDS011;64924;42.140;24.762;2023-07-20T05:10:14;16.45;;;8.13;;
73869;SDS011;64924;42.140;24.762;2023-07-20T05:12:39;14.00;;;8.80;;
73869;SDS011;64924;42.140;24.762;2023-07-20T05:15:05;26.83;;;8.50;;
73869;SDS011;64924;42.140;24.762;2023-07-20T05:17:31;21.20;;;8.05;;
73869;SDS011;64924;42.140;24.762;2023-07-20T05:19:56;17.50;;;8.18;;
73869;SDS011;64924;42.140;24.762;2023-07-20T05:22:22;20.65;;;8.43;;
73869;SDS011;64924;42.140;24.762;2023-07-20T05:24:49;17.63;;;8.75;;
73869;SDS011;64924;42.140;24.762;2023-07-20T05:27:15;21.17;;;9.00;;
73869;SDS011;64924;42.140;24.762;2023-07-20T05:29:44;21.58;;;8.65;;
73869;SDS011;64924;42.140;24.762;2023-07-20T05:32:10;21.70;;;8.27;;
73869;SDS011;64924;42.140;24.762;2023-07-20T05:34:35;11.48;;;7.80;;
73869;SDS011;64924;42.140;24.762;2023-07-20T05:37:01;13.35;;;7.78;;
73869;SDS011;64924;42.140;24.762;2023-07-20T05:39:26;18.92;;;7.07;;
73869;SDS011;64924;42.140;24.762;2023-07-20T05:41:52;19.83;;;7.93;;
73869;SDS011;64924;42.140;24.762;2023-07-20T05:44:17;16.15;;;7.13;;
73869;SDS011;64924;42.140;24.762;2023-07-20T05:46:43;16.25;;;7.78;;
73869;SDS011;64924;42.140;24.762;2023-07-20T05:49:08;10.65;;;6.88;;
73869;SDS011;64924;42.140;24.762;2023-07-20T05:51:35;21.55;;;7.38;;
73869;SDS011;64924;42.140;24.762;2023-07-20T05:54:00;18.88;;;7.47;;
73869;SDS011;64924;42.140;24.762;2023-07-20T05:56:26;16.92;;;7.82;;
73869;SDS011;64924;42.140;24.762;2023-07-20T05:58:51;11.95;;;7.43;;
73869;SDS011;64924;42.140;24.762;2023-07-20T06:01:16;15.70;;;6.93;;
73869;SDS011;64924;42.140;24.762;2023-07-20T06:03:44;17.88;;;7.10;;
73869;SDS011;64924;42.140;24.762;2023-07-20T06:06:09;13.15;;;7.35;;
73869;SDS011;64924;42.140;24.762;2023-07-20T06:08:36;13.30;;;6.40;;
73869;SDS011;64924;42.140;24.762;2023-07-20T06:11:02;15.98;;;7.07;;
73869;SDS011;64924;42.140;24.762;2023-07-20T06:13:28;12.63;;;6.53;;
73869;SDS011;64924;42.140;24.762;2023-07-20T06:15:53;15.30;;;6.78;;
73869;SDS011;64924;42.140;24.762;2023-07-20T06:18:21;15.15;;;6.75;;
73869;SDS011;64924;42.140;24.762;2023-07-20T06:20:51;14.05;;;6.93;;
73869;SDS011;64924;42.140;24.762;2023-07-20T06:23:18;12.48;;;7.50;;
73869;SDS011;64924;42.140;24.762;2023-07-20T06:25:44;16.35;;;6.88;;
73869;SDS011;64924;42.140;24.762;2023-07-20T06:28:10;14.55;;;7.10;;
73869;SDS011;64924;42.140;24.762;2023-07-20T06:30:35;17.65;;;7.22;;
73869;SDS011;64924;42.140;24.762;2023-07-20T06:33:00;21.67;;;6.75;;
73869;SDS011;64924;42.140;24.762;2023-07-20T06:35:26;58.85;;;11.18;;
73869;SDS011;64924;42.140;24.762;2023-07-20T06:37:52;117.63;;;15.82;;
73869;SDS011;64924;42.140;24.762;2023-07-20T06:40:17;29.38;;;7.40;;
73869;SDS011;64924;42.140;24.762;2023-07-20T06:42:43;13.93;;;7.38;;
73869;SDS011;64924;42.140;24.762;2023-07-20T06:45:09;30.98;;;8.90;;
73869;SDS011;64924;42.140;24.762;2023-07-20T06:47:35;26.80;;;11.18;;
73869;SDS011;64924;42.140;24.762;2023-07-20T06:50:03;12.82;;;8.15;;
73869;SDS011;64924;42.140;24.762;2023-07-20T06:52:28;52.60;;;11.60;;
73869;SDS011;64924;42.140;24.762;2023-07-20T06:54:54;20.92;;;8.13;;
73869;SDS011;64924;42.140;24.762;2023-07-20T06:57:19;12.70;;;6.13;;
73869;SDS011;64924;42.140;24.762;2023-07-20T06:59:45;12.95;;;6.57;;
73869;SDS011;64924;42.140;24.762;2023-07-20T07:02:10;9.20;;;5.72;;
73869;SDS011;64924;42.140;24.762;2023-07-20T07:04:36;12.20;;;6.43;;
73869;SDS011;64924;42.140;24.762;2023-07-20T07:07:01;12.40;;;6.55;;
73869;SDS011;64924;42.140;24.762;2023-07-20T07:09:28;11.00;;;5.80;;
73869;SDS011;64924;42.140;24.762;2023-07-20T07:11:53;10.00;;;5.70;;
73869;SDS011;64924;42.140;24.762;2023-07-20T07:14:19;12.23;;;5.68;;
73869;SDS011;64924;42.140;24.762;2023-07-20T07:16:45;11.40;;;6.07;;
73869;SDS011;64924;42.140;24.762;2023-07-20T07:19:11;14.45;;;6.43;;
73869;SDS011;64924;42.140;24.762;2023-07-20T07:21:36;23.48;;;17.02;;
73869;SDS011;64924;42.140;24.762;2023-07-20T07:24:01;29.08;;;14.65;;
73869;SDS011;64924;42.140;24.762;2023-07-20T07:26:28;23.13;;;10.75;;
73869;SDS011;64924;42.140;24.762;2023-07-20T07:28:54;17.35;;;8.82;;
73869;SDS011;64924;42.140;24.762;2023-07-20T07:31:19;13.88;;;7.00;;
73869;SDS011;64924;42.140;24.762;2023-07-20T07:33:45;14.18;;;6.10;;
73869;SDS011;64924;42.140;24.762;2023-07-20T07:36:11;14.18;;;5.63;;
73869;SDS011;64924;42.140;24.762;2023-07-20T07:38:37;12.07;;;6.00;;
73869;SDS011;64924;42.140;24.762;2023-07-20T07:41:03;11.05;;;5.97;;
73869;SDS011;64924;42.140;24.762;2023-07-20T07:43:28;9.18;;;5.35;;
73869;SDS011;64924;42.140;24.762;2023-07-20T07:45:54;16.40;;;5.35;;
73869;SDS011;64924;42.140;24.762;2023-07-20T07:48:20;11.43;;;5.63;;
73869;SDS011;64924;42.140;24.762;2023-07-20T07:50:47;11.30;;;5.85;;
73869;SDS011;64924;42.140;24.762;2023-07-20T07:53:12;14.68;;;7.28;;
73869;SDS011;64924;42.140;24.762;2023-07-20T07:55:38;11.98;;;6.03;;
73869;SDS011;64924;42.140;24.762;2023-07-20T07:58:03;11.20;;;5.65;;
73869;SDS011;64924;42.140;24.762;2023-07-20T08:00:29;18.13;;;6.55;;
73869;SDS011;64924;42.140;24.762;2023-07-20T08:02:54;16.05;;;7.78;;
73869;SDS011;64924;42.140;24.762;2023-07-20T08:05:20;19.10;;;6.10;;
73869;SDS011;64924;42.140;24.762;2023-07-20T08:07:45;23.65;;;6.43;;
73869;SDS011;64924;42.140;24.762;2023-07-20T08:10:11;12.45;;;5.43;;
73869;SDS011;64924;42.140;24.762;2023-07-20T08:12:37;10.63;;;5.72;;
73869;SDS011;64924;42.140;24.762;2023-07-20T08:15:02;15.30;;;6.00;;
73869;SDS011;64924;42.140;24.762;2023-07-20T08:17:29;9.43;;;5.55;;
73869;SDS011;64924;42.140;24.762;2023-07-20T08:19:54;13.50;;;5.65;;
73869;SDS011;64924;42.140;24.762;2023-07-20T08:22:20;12.57;;;5.50;;
73869;SDS011;64924;42.140;24.762;2023-07-20T08:24:45;11.38;;;5.90;;
73869;SDS011;64924;42.140;24.762;2023-07-20T08:27:11;21.27;;;7.57;;
73869;SDS011;64924;42.140;24.762;2023-07-20T08:29:37;19.42;;;6.57;;
73869;SDS011;64924;42.140;24.762;2023-07-20T08:32:03;14.02;;;5.82;;
73869;SDS011;64924;42.140;24.762;2023-07-20T08:34:29;31.40;;;7.40;;
73869;SDS011;64924;42.140;24.762;2023-07-20T08:36:55;32.08;;;8.13;;
73869;SDS011;64924;42.140;24.762;2023-07-20T08:39:21;13.70;;;5.47;;
73869;SDS011;64924;42.140;24.762;2023-07-20T08:41:48;14.30;;;5.60;;
73869;SDS011;64924;42.140;24.762;2023-07-20T08:44:13;32.17;;;7.25;;
73869;SDS011;64924;42.140;24.762;2023-07-20T08:46:40;14.75;;;6.18;;
73869;SDS011;64924;42.140;24.762;2023-07-20T08:49:07;11.73;;;5.43;;
73869;SDS011;64924;42.140;24.762;2023-07-20T08:51:33;15.85;;;5.95;;
73869;SDS011;64924;42.140;24.762;2023-07-20T08:54:00;9.82;;;6.40;;
73869;SDS011;64924;42.140;24.762;2023-07-20T08:56:26;9.20;;;6.07;;
73869;SDS011;64924;42.140;24.762;2023-07-20T08:58:52;13.52;;;6.10;;
73869;SDS011;64924;42.140;24.762;2023-07-20T09:01:21;11.50;;;6.18;;
73869;SDS011;64924;42.140;24.762;2023-07-20T09:03:47;20.30;;;7.18;;
73869;SDS011;64924;42.140;24.762;2023-07-20T09:06:13;11.35;;;6.30;;
73869;SDS011;64924;42.140;24.762;2023-07-20T09:08:42;11.48;;;6.45;;
73869;SDS011;64924;42.140;24.762;2023-07-20T09:11:12;9.60;;;6.30;;
73869;SDS011;64924;42.140;24.762;2023-07-20T09:13:41;9.90;;;6.43;;
73869;SDS011;64924;42.140;24.762;2023-07-20T09:16:06;18.00;;;7.32;;
73869;SDS011;64924;42.140;24.762;2023-07-20T09:18:32;16.15;;;7.97;;
73869;SDS011;64924;42.140;24.762;2023-07-20T09:21:02;10.70;;;6.28;;
73869;SDS011;64924;42.140;24.762;2023-07-20T09:23:29;20.52;;;9.23;;
73869;SDS011;64924;42.140;24.762;2023-07-20T09:25:57;15.02;;;6.40;;
73869;SDS011;64924;42.140;24.762;2023-07-20T09:28:23;13.15;;;6.38;;
73869;SDS011;64924;42.140;24.762;2023-07-20T09:30:48;11.15;;;6.40;;
73869;SDS011;64924;42.140;24.762;2023-07-20T09:33:23;26.70;;;8.32;;
73869;SDS011;64924;42.140;24.762;2023-07-20T09:35:49;19.27;;;7.93;;
73869;SDS011;64924;42.140;24.762;2023-07-20T09:38:15;13.45;;;6.07;;
73869;SDS011;64924;42.140;24.762;2023-07-20T09:40:41;9.13;;;6.82;;
73869;SDS011;64924;42.140;24.762;2023-07-20T09:43:08;10.30;;;6.47;;
73869;SDS011;64924;42.140;24.762;2023-07-20T09:45:39;11.30;;;6.88;;
73869;SDS011;64924;42.140;24.762;2023-07-20T09:48:07;12.13;;;7.13;;
73869;SDS011;64924;42.140;24.762;2023-07-20T09:50:34;12.07;;;6.95;;
73869;SDS011;64924;42.140;24.762;2023-07-20T09:53:05;14.82;;;6.30;;
73869;SDS011;64924;42.140;24.762;2023-07-20T09:55:32;10.10;;;6.32;;
73869;SDS011;64924;42.140;24.762;2023-07-20T09:57:58;11.88;;;7.20;;
73869;SDS011;64924;42.140;24.762;2023-07-20T10:00:25;16.38;;;7.22;;
73869;SDS011;64924;42.140;24.762;2023-07-20T10:02:51;27.85;;;9.60;;
73869;SDS011;64924;42.140;24.762;2023-07-20T10:05:18;17.92;;;6.75;;
73869;SDS011;64924;42.140;24.762;2023-07-20T10:07:46;10.50;;;6.32;;
73869;SDS011;64924;42.140;24.762;2023-07-20T10:10:13;16.48;;;7.10;;
73869;SDS011;64924;42.140;24.762;2023-07-20T10:12:42;11.75;;;7.13;;
73869;SDS011;64924;42.140;24.762;2023-07-20T10:18:08;12.65;;;7.30;;
73869;SDS011;64924;42.140;24.762;2023-07-20T10:20:40;10.00;;;6.85;;
73869;SDS011;64924;42.140;24.762;2023-07-20T10:25:35;16.17;;;7.57;;
73869;SDS011;64924;42.140;24.762;2023-07-20T10:28:07;19.00;;;8.00;;
73869;SDS011;64924;42.140;24.762;2023-07-20T10:30:35;12.27;;;8.18;;
73869;SDS011;64924;42.140;24.762;2023-07-20T10:33:05;14.32;;;6.82;;
73869;SDS011;64924;42.140;24.762;2023-07-20T10:35:50;11.63;;;7.10;;
73869;SDS011;64924;42.140;24.762;2023-07-20T10:38:38;13.75;;;7.53;;
73869;SDS011;64924;42.140;24.762;2023-07-20T10:41:19;16.98;;;7.15;;
73869;SDS011;64924;42.140;24.762;2023-07-20T10:43:58;12.00;;;7.00;;
73869;SDS011;64924;42.140;24.762;2023-07-20T10:46:44;18.73;;;7.93;;
73869;SDS011;64924;42.140;24.762;2023-07-20T10:49:11;14.55;;;7.22;;
73869;SDS011;64924;42.140;24.762;2023-07-20T10:56:41;11.80;;;7.45;;
73869;SDS011;64924;42.140;24.762;2023-07-20T11:01:48;16.25;;;8.45;;
73869;SDS011;64924;42.140;24.762;2023-07-20T11:04:14;21.70;;;12.00;;
73869;SDS011;64924;42.140;24.762;2023-07-20T11:06:44;16.08;;;11.18;;
73869;SDS011;64924;42.140;24.762;2023-07-20T11:09:12;16.70;;;9.23;;
73869;SDS011;64924;42.140;24.762;2023-07-20T11:11:44;12.43;;;6.78;;
73869;SDS011;64924;42.140;24.762;2023-07-20T11:14:21;22.90;;;8.30;;
73869;SDS011;64924;42.140;24.762;2023-07-20T11:16:49;12.57;;;6.70;;
73869;SDS011;64924;42.140;24.762;2023-07-20T11:21:51;10.85;;;7.00;;
73869;SDS011;64924;42.140;24.762;2023-07-20T11:24:18;14.30;;;7.60;;
73869;SDS011;64924;42.140;24.762;2023-07-20T11:26:44;11.15;;;6.07;;
73869;SDS011;64924;42.140;24.762;2023-07-20T11:29:17;13.55;;;6.65;;
73869;SDS011;64924;42.140;24.762;2023-07-20T11:31:44;12.90;;;5.80;;
73869;SDS011;64924;42.140;24.762;2023-07-20T11:34:11;13.18;;;6.18;;
73869;SDS011;64924;42.140;24.762;2023-07-20T11:36:40;14.95;;;6.80;;
73869;SDS011;64924;42.140;24.762;2023-07-20T11:39:10;14.55;;;6.80;;
73869;SDS011;64924;42.140;24.762;2023-07-20T11:41:37;9.13;;;5.82;;
73869;SDS011;64924;42.140;24.762;2023-07-20T11:44:04;15.70;;;9.95;;
73869;SDS011;64924;42.140;24.762;2023-07-20T11:46:31;13.50;;;6.03;;
73869;SDS011;64924;42.140;24.762;2023-07-20T11:48:58;14.40;;;10.35;;
73869;SDS011;64924;42.140;24.762;2023-07-20T11:51:27;11.68;;;5.70;;
73869;SDS011;64924;42.140;24.762;2023-07-20T11:53:54;12.57;;;6.30;;
73869;SDS011;64924;42.140;24.762;2023-07-20T11:56:20;13.02;;;6.18;;
73869;SDS011;64924;42.140;24.762;2023-07-20T11:58:47;18.00;;;11.73;;
73869;SDS011;64924;42.140;24.762;2023-07-20T12:01:13;15.38;;;9.43;;
73869;SDS011;64924;42.140;24.762;2023-07-20T12:03:39;12.90;;;9.70;;
73869;SDS011;64924;42.140;24.762;2023-07-20T12:06:08;18.77;;;13.55;;
73869;SDS011;64924;42.140;24.762;2023-07-20T12:08:34;12.20;;;10.95;;
73869;SDS011;64924;42.140;24.762;2023-07-20T12:10:59;13.40;;;7.38;;
73869;SDS011;64924;42.140;24.762;2023-07-20T12:13:43;17.20;;;9.75;;
73869;SDS011;64924;42.140;24.762;2023-07-20T12:16:13;13.30;;;8.20;;
73869;SDS011;64924;42.140;24.762;2023-07-20T12:18:39;14.98;;;8.20;;
73869;SDS011;64924;42.140;24.762;2023-07-20T12:21:06;16.58;;;8.43;;
73869;SDS011;64924;42.140;24.762;2023-07-20T12:23:40;11.13;;;6.70;;
73869;SDS011;64924;42.140;24.762;2023-07-20T12:26:09;13.27;;;9.38;;
73869;SDS011;64924;42.140;24.762;2023-07-20T12:28:38;9.15;;;6.70;;
73869;SDS011;64924;42.140;24.762;2023-07-20T12:31:08;14.15;;;6.35;;
73869;SDS011;64924;42.140;24.762;2023-07-20T12:33:34;9.82;;;5.22;;
73869;SDS011;64924;42.140;24.762;2023-07-20T12:36:00;10.30;;;6.53;;
73869;SDS011;64924;42.140;24.762;2023-07-20T12:38:26;15.13;;;11.98;;
73869;SDS011;64924;42.140;24.762;2023-07-20T12:40:56;8.15;;;5.60;;
73869;SDS011;64924;42.140;24.762;2023-07-20T12:43:22;11.85;;;7.95;;
73869;SDS011;64924;42.140;24.762;2023-07-20T12:45:47;32.35;;;21.92;;
73869;SDS011;64924;42.140;24.762;2023-07-20T12:48:13;42.08;;;25.70;;
73869;SDS011;64924;42.140;24.762;2023-07-20T12:50:39;29.88;;;19.17;;
73869;SDS011;64924;42.140;24.762;2023-07-20T12:53:04;24.92;;;16.50;;
73869;SDS011;64924;42.140;24.762;2023-07-20T12:55:30;27.83;;;15.25;;
73869;SDS011;64924;42.140;24.762;2023-07-20T12:57:56;26.15;;;17.33;;
73869;SDS011;64924;42.140;24.762;2023-07-20T13:00:22;28.13;;;17.67;;
73869;SDS011;64924;42.140;24.762;2023-07-20T13:02:48;25.77;;;15.65;;
73869;SDS011;64924;42.140;24.762;2023-07-20T13:05:14;16.15;;;9.93;;
73869;SDS011;64924;42.140;24.762;2023-07-20T13:07:40;18.30;;;6.85;;
73869;SDS011;64924;42.140;24.762;2023-07-20T13:10:06;21.70;;;12.77;;
73869;SDS011;64924;42.140;24.762;2023-07-20T13:12:33;16.33;;;9.50;;
73869;SDS011;64924;42.140;24.762;2023-07-20T13:15:00;19.40;;;9.00;;
73869;SDS011;64924;42.140;24.762;2023-07-20T13:17:27;15.30;;;8.18;;
73869;SDS011;64924;42.140;24.762;2023-07-20T13:19:54;13.65;;;6.88;;
73869;SDS011;64924;42.140;24.762;2023-07-20T13:22:19;13.18;;;10.02;;
73869;SDS011;64924;42.140;24.762;2023-07-20T13:24:46;14.75;;;9.10;;
73869;SDS011;64924;42.140;24.762;2023-07-20T13:27:18;13.65;;;8.55;;
73869;SDS011;64924;42.140;24.762;2023-07-20T13:29:44;11.80;;;7.22;;
73869;SDS011;64924;42.140;24.762;2023-07-20T13:32:12;11.48;;;7.55;;
73869;SDS011;64924;42.140;24.762;2023-07-20T13:34:38;11.52;;;7.05;;
73869;SDS011;64924;42.140;24.762;2023-07-20T13:37:04;15.38;;;11.90;;
73869;SDS011;64924;42.140;24.762;2023-07-20T13:39:30;20.92;;;14.63;;
73869;SDS011;64924;42.140;24.762;2023-07-20T13:41:55;14.85;;;11.85;;
73869;SDS011;64924;42.140;24.762;2023-07-20T13:44:21;18.30;;;9.65;;
73869;SDS011;64924;42.140;24.762;2023-07-20T13:46:49;15.88;;;7.60;;
73869;SDS011;64924;42.140;24.762;2023-07-20T13:49:15;15.00;;;6.40;;
73869;SDS011;64924;42.140;24.762;2023-07-20T13:51:41;16.83;;;6.50;;
73869;SDS011;64924;42.140;24.762;2023-07-20T13:54:08;9.80;;;5.68;;
73869;SDS011;64924;42.140;24.762;2023-07-20T13:56:34;10.23;;;5.80;;
73869;SDS011;64924;42.140;24.762;2023-07-20T13:58:59;8.45;;;5.40;;
73869;SDS011;64924;42.140;24.762;2023-07-20T14:01:25;12.35;;;6.07;;
73869;SDS011;64924;42.140;24.762;2023-07-20T14:03:53;14.07;;;6.38;;
73869;SDS011;64924;42.140;24.762;2023-07-20T14:06:18;13.70;;;6.68;;
73869;SDS011;64924;42.140;24.762;2023-07-20T14:08:44;15.07;;;12.82;;
73869;SDS011;64924;42.140;24.762;2023-07-20T14:11:12;11.07;;;6.40;;
73869;SDS011;64924;42.140;24.762;2023-07-20T14:13:38;13.88;;;7.30;;
73869;SDS011;64924;42.140;24.762;2023-07-20T14:16:04;20.55;;;13.95;;
73869;SDS011;64924;42.140;24.762;2023-07-20T14:18:29;13.52;;;9.40;;
73869;SDS011;64924;42.140;24.762;2023-07-20T14:20:55;11.30;;;6.35;;
73869;SDS011;64924;42.140;24.762;2023-07-20T14:23:20;10.55;;;5.65;;
73869;SDS011;64924;42.140;24.762;2023-07-20T14:25:46;9.20;;;5.20;;
73869;SDS011;64924;42.140;24.762;2023-07-20T14:28:11;10.00;;;6.45;;
73869;SDS011;64924;42.140;24.762;2023-07-20T14:30:38;10.60;;;5.13;;
73869;SDS011;64924;42.140;24.762;2023-07-20T14:33:03;12.95;;;6.45;;
73869;SDS011;64924;42.140;24.762;2023-07-20T14:35:29;13.18;;;6.80;;
73869;SDS011;64924;42.140;24.762;2023-07-20T14:37:54;11.73;;;5.05;;
73869;SDS011;64924;42.140;24.762;2023-07-20T14:40:19;14.55;;;8.07;;
73869;SDS011;64924;42.140;24.762;2023-07-20T14:42:45;12.20;;;5.63;;